createdAt,value
2022-09-17T00:01:31.579Z,50.77
2022-09-17T00:04:03.869Z,50.01
2022-09-17T00:06:32.791Z,47.83
2022-09-17T00:09:00.190Z,48.04
2022-09-17T00:11:31.531Z,48.36
2022-09-17T00:14:01.437Z,49.52
2022-09-17T00:16:33.721Z,50.17
2022-09-17T00:19:02.210Z,49.86
2022-09-17T00:21:29.990Z,51.09
2022-09-17T00:23:59.635Z,50.43
2022-09-17T00:26:28.341Z,50.38
2022-09-17T00:28:57.189Z,49.03
2022-09-17T00:31:25.860Z,48.52
2022-09-17T00:33:53.788Z,47.65
2022-09-17T00:36:22.674Z,46.21
2022-09-17T00:38:55.710Z,47.89
2022-09-17T00:41:25.478Z,45.07
2022-09-17T00:43:56.772Z,45.26
2022-09-17T00:46:42.172Z,45.53
2022-09-17T00:49:15.238Z,46.23
2022-09-17T00:51:55.003Z,45.38
2022-09-17T00:54:25.390Z,45.19
2022-09-17T00:56:53.089Z,45.31
2022-09-17T00:59:23.376Z,45.83
2022-09-17T01:01:51.687Z,45.47
2022-09-17T01:04:24.293Z,46.31
2022-09-17T01:07:09.359Z,47.53
2022-09-17T01:10:03.292Z,46.33
2022-09-17T01:12:57.170Z,46.37
2022-09-17T01:15:42.921Z,45.19
2022-09-17T01:18:43.988Z,44.54
2022-09-17T01:21:34.218Z,44.72
2022-09-17T01:24:23.685Z,44.64
2022-09-17T01:27:07.608Z,43.85
2022-09-17T01:29:53.555Z,43.42
2022-09-17T01:32:26.052Z,44.33
2022-09-17T01:35:02.797Z,44.28
2022-09-17T01:37:42.802Z,44.25
2022-09-17T01:40:29.317Z,43.47
2022-09-17T01:43:21.640Z,43.14
2022-09-17T01:46:01.424Z,43.99
2022-09-17T01:48:36.356Z,44.13
2022-09-17T01:51:13.247Z,43.73
2022-09-17T01:54:02.135Z,43.42
2022-09-17T01:56:56.644Z,43.67
2022-09-17T01:59:35.255Z,44.36
2022-09-17T02:02:22.539Z,44.33
2022-09-17T02:05:01.668Z,44.15
2022-09-17T02:07:33.682Z,45.26
2022-09-17T02:10:32.753Z,50.05
2022-09-17T02:13:09.665Z,51.80
2022-09-17T02:15:43.165Z,53.64
2022-09-17T02:18:32.788Z,53.35
2022-09-17T02:21:15.794Z,52.10
2022-09-17T02:24:20.587Z,51.65
2022-09-17T02:27:03.452Z,54.59
2022-09-17T02:29:39.075Z,64.75
2022-09-17T02:32:07.174Z,68.51
2022-09-17T02:34:35.370Z,71.01
2022-09-17T02:37:03.926Z,77.38
2022-09-17T02:39:31.774Z,83.65
2022-09-17T02:42:23.956Z,87.18
2022-09-17T02:45:19.625Z,90.07
2022-09-17T02:48:09.201Z,90.18
2022-09-17T02:50:58.333Z,89.18
2022-09-17T02:53:31.840Z,93.74
2022-09-17T02:56:26.675Z,98.03
2022-09-17T02:59:20.917Z,100.00
2022-09-17T03:02:00.532Z,100.00
2022-09-17T03:04:29.912Z,100.00
2022-09-17T03:06:59.821Z,100.00
2022-09-17T03:09:27.333Z,100.00
2022-09-17T03:11:54.838Z,100.00
2022-09-17T03:14:22.302Z,100.00
2022-09-17T03:16:49.767Z,100.00
2022-09-17T03:19:17.195Z,100.00
2022-09-17T03:21:44.600Z,100.00
2022-09-17T03:24:12.238Z,100.00
2022-09-17T03:26:40.037Z,100.00
2022-09-17T03:29:07.600Z,100.00
2022-09-17T03:31:35.226Z,100.00
2022-09-17T03:34:02.638Z,100.00
2022-09-17T03:36:30.010Z,100.00
2022-09-17T03:38:58.213Z,100.00
2022-09-17T03:41:26.540Z,100.00
2022-09-17T03:43:54.415Z,89.09
2022-09-17T03:46:21.876Z,80.49
2022-09-17T03:48:49.435Z,78.44
2022-09-17T03:51:16.912Z,71.73
2022-09-17T03:53:44.530Z,62.05
2022-09-17T03:56:11.857Z,62.67
2022-09-17T03:58:39.526Z,60.52
2022-09-17T04:01:07.119Z,59.94
2022-09-17T04:03:34.654Z,55.24
2022-09-17T04:06:02.201Z,54.56
2022-09-17T04:08:29.646Z,45.01
2022-09-17T04:10:57.126Z,50.14
2022-09-17T04:13:24.669Z,50.16
2022-09-17T04:15:52.391Z,49.74
2022-09-17T04:18:19.839Z,49.33
2022-09-17T04:20:47.351Z,49.78
2022-09-17T04:23:14.994Z,51.93
2022-09-17T04:25:43.149Z,52.35
2022-09-17T04:28:10.699Z,53.35
2022-09-17T04:30:38.198Z,53.21
2022-09-17T04:33:06.094Z,54.98
2022-09-17T04:35:33.515Z,53.66
2022-09-17T04:38:01.434Z,51.14
2022-09-17T04:40:29.827Z,52.79
2022-09-17T04:43:03.517Z,50.09
2022-09-17T04:45:31.161Z,53.63
2022-09-17T04:47:58.661Z,53.96
2022-09-17T04:50:26.101Z,53.85
2022-09-17T04:52:53.499Z,54.84
2022-09-17T04:55:21.074Z,53.59
2022-09-17T04:57:53.700Z,56.47
2022-09-17T05:00:23.815Z,53.87
2022-09-17T05:02:55.159Z,54.95
2022-09-17T05:05:23.823Z,54.27
2022-09-17T05:07:51.306Z,54.21
2022-09-17T05:10:20.367Z,52.73
2022-09-17T05:12:49.601Z,53.06
2022-09-17T05:15:17.916Z,53.44
2022-09-17T05:17:46.253Z,53.71
2022-09-17T05:20:14.424Z,56.14
2022-09-17T05:22:47.179Z,53.99
2022-09-17T05:25:17.010Z,55.16
2022-09-17T05:27:44.558Z,57.42
2022-09-17T05:30:13.437Z,54.18
2022-09-17T05:32:41.066Z,54.46
2022-09-17T05:35:09.115Z,54.85
2022-09-17T05:37:37.153Z,56.28
2022-09-17T05:40:07.680Z,53.88
2022-09-17T05:42:35.240Z,54.43
2022-09-17T05:45:02.522Z,53.49
2022-09-17T05:47:30.492Z,55.08
2022-09-17T05:49:57.924Z,52.03
2022-09-17T05:52:29.184Z,52.03
2022-09-17T05:54:56.946Z,49.95
2022-09-17T05:57:25.038Z,49.98
2022-09-17T05:59:52.404Z,51.85
2022-09-17T06:02:19.867Z,51.99
2022-09-17T06:04:47.302Z,46.19
2022-09-17T06:07:14.835Z,43.38
2022-09-17T06:09:42.216Z,44.85
2022-09-17T06:12:09.744Z,40.59
2022-09-17T06:14:37.214Z,40.68
2022-09-17T06:17:05.358Z,38.68
2022-09-17T06:19:32.792Z,34.81
2022-09-17T06:22:00.322Z,37.06
2022-09-17T06:24:28.282Z,31.78
2022-09-17T06:26:55.659Z,36.40
2022-09-17T06:29:23.135Z,34.54
2022-09-17T06:31:50.828Z,32.22
2022-09-17T06:34:18.375Z,30.07
2022-09-17T06:36:46.262Z,27.99
2022-09-17T06:39:14.373Z,28.63
2022-09-17T06:41:44.712Z,28.83
2022-09-17T06:44:12.235Z,26.30
2022-09-17T06:46:39.613Z,25.16
2022-09-17T06:49:07.034Z,25.17
2022-09-17T06:51:34.444Z,25.49
2022-09-17T06:54:01.946Z,25.19
2022-09-17T06:56:29.371Z,23.65
2022-09-17T06:58:56.997Z,22.30
2022-09-17T07:01:24.401Z,21.88
2022-09-17T07:03:51.881Z,23.50
2022-09-17T07:06:19.378Z,23.36
2022-09-17T07:08:47.492Z,23.21
2022-09-17T07:11:16.385Z,23.57
2022-09-17T07:13:43.771Z,25.46
2022-09-17T07:16:11.329Z,25.46
2022-09-17T07:18:40.237Z,26.08
2022-09-17T07:21:09.750Z,25.65
2022-09-17T07:23:38.012Z,26.36
2022-09-17T07:26:09.288Z,25.89
2022-09-17T07:28:39.330Z,28.65
2022-09-17T07:31:10.268Z,28.52
2022-09-17T07:33:40.181Z,28.39
2022-09-17T07:36:11.312Z,30.30
2022-09-17T07:38:39.887Z,31.59
2022-09-17T07:41:13.506Z,31.12
2022-09-17T07:43:41.826Z,31.64
2022-09-17T07:46:15.320Z,32.56
2022-09-17T07:48:43.053Z,32.38
2022-09-17T07:51:23.384Z,32.86
2022-09-17T07:53:55.663Z,33.50
2022-09-17T07:56:23.511Z,32.56
2022-09-17T07:58:50.966Z,33.34
2022-09-17T08:01:19.200Z,33.25
2022-09-17T08:03:52.053Z,32.94
2022-09-17T08:06:34.111Z,34.21
2022-09-17T08:09:01.581Z,35.02
2022-09-17T08:14:18.264Z,35.69
2022-09-17T08:16:47.659Z,36.59
2022-09-17T08:19:15.422Z,37.61
2022-09-17T08:21:42.836Z,37.37
2022-09-17T08:24:10.527Z,37.99
2022-09-17T08:26:38.614Z,37.76
2022-09-17T08:29:07.565Z,37.64
2022-09-17T08:31:35.411Z,38.49
2022-09-17T08:34:02.874Z,38.54
2022-09-17T08:36:30.432Z,39.14
2022-09-17T08:38:58.833Z,38.97
2022-09-17T08:41:54.453Z,38.33
2022-09-17T08:44:30.984Z,39.02
2022-09-17T08:47:09.335Z,38.20
2022-09-17T08:49:46.744Z,38.62
2022-09-17T08:52:42.162Z,38.85
2022-09-17T08:55:34.129Z,39.15
2022-09-17T08:58:07.895Z,38.85
2022-09-17T09:01:23.242Z,39.14
2022-09-17T09:04:03.389Z,39.29
2022-09-17T09:06:36.634Z,39.97
2022-09-17T09:09:12.318Z,39.45
2022-09-17T09:11:42.973Z,39.34
2022-09-17T09:14:10.347Z,39.93
2022-09-17T09:16:41.846Z,40.10
2022-09-17T09:19:21.383Z,40.33
2022-09-17T09:22:02.045Z,40.63
2022-09-17T09:24:42.623Z,41.28
2022-09-17T09:27:19.640Z,41.07
2022-09-17T09:30:07.272Z,40.90
2022-09-17T09:32:53.120Z,41.06
2022-09-17T09:35:24.672Z,41.53
2022-09-17T09:38:05.104Z,41.84
2022-09-17T09:40:47.196Z,41.47
2022-09-17T09:43:22.577Z,41.54
2022-09-17T09:46:11.883Z,41.34
2022-09-17T09:48:56.221Z,42.64
2022-09-17T09:51:40.140Z,42.18
2022-09-17T09:54:27.761Z,42.20
2022-09-17T09:56:59.434Z,42.75
2022-09-17T09:59:27.316Z,43.22
2022-09-17T10:01:54.905Z,44.37
2022-09-17T10:04:26.099Z,44.62
2022-09-17T10:07:00.334Z,45.66
2022-09-17T10:09:30.226Z,45.76
2022-09-17T10:12:09.835Z,45.44
2022-09-17T10:14:42.437Z,45.77
2022-09-17T10:17:21.198Z,46.43
2022-09-17T10:20:22.080Z,46.33
2022-09-17T10:22:50.746Z,46.57
2022-09-17T10:25:32.927Z,46.49
2022-09-17T10:28:03.955Z,46.38
2022-09-17T10:30:32.331Z,46.41
2022-09-17T10:33:26.102Z,46.58
2022-09-17T10:35:59.249Z,46.68
2022-09-17T10:38:33.664Z,46.62
2022-09-17T10:41:19.243Z,46.95
2022-09-17T10:43:46.783Z,47.76
2022-09-17T10:46:40.276Z,47.89
2022-09-17T10:49:12.382Z,46.45
2022-09-17T10:51:40.394Z,46.47
2022-09-17T10:54:25.658Z,46.31
2022-09-17T10:56:59.827Z,46.27
2022-09-17T10:59:45.642Z,46.19
2022-09-17T11:02:19.078Z,45.99
2022-09-17T11:05:05.426Z,45.73
2022-09-17T11:08:13.175Z,45.99
2022-09-17T11:11:10.885Z,46.56
2022-09-17T11:13:41.907Z,45.97
2022-09-17T11:16:40.425Z,46.09
2022-09-17T11:19:45.804Z,50.68
2022-09-17T11:22:31.567Z,52.26
2022-09-17T11:25:36.150Z,53.95
2022-09-17T11:28:19.267Z,54.50
2022-09-17T11:31:06.435Z,55.24
2022-09-17T11:33:48.547Z,55.76
2022-09-17T11:36:25.427Z,56.52
2022-09-17T11:38:56.175Z,56.04
2022-09-17T11:41:32.005Z,56.82
2022-09-17T11:44:22.256Z,57.21
2022-09-17T11:47:21.585Z,57.36
2022-09-17T11:49:54.809Z,58.64
2022-09-17T11:52:32.514Z,59.86
2022-09-17T11:55:08.758Z,59.79
2022-09-17T11:57:40.518Z,61.55
2022-09-17T12:00:19.092Z,62.65
2022-09-17T12:03:07.222Z,63.32
2022-09-17T12:05:47.095Z,63.59
2022-09-17T12:08:17.482Z,64.79
2022-09-17T12:11:00.185Z,64.60
2022-09-17T12:13:28.459Z,64.36
2022-09-17T12:16:23.199Z,63.70
2022-09-17T12:19:13.216Z,63.94
2022-09-17T12:21:55.333Z,64.12
2022-09-17T12:24:25.541Z,64.26
2022-09-17T12:27:04.736Z,65.49
2022-09-17T12:29:55.025Z,66.28
2022-09-17T12:32:49.049Z,67.76
2022-09-17T12:39:05.280Z,69.84
2022-09-17T12:41:57.005Z,70.63
2022-09-17T12:44:30.561Z,74.71
2022-09-17T12:47:29.211Z,73.32
2022-09-17T12:50:17.082Z,74.13
2022-09-17T12:53:05.019Z,74.64
2022-09-17T12:56:20.040Z,74.36
2022-09-17T12:58:56.780Z,75.30
2022-09-17T13:01:56.363Z,74.69
2022-09-17T13:04:59.452Z,75.57
2022-09-17T13:07:45.018Z,74.03
2022-09-17T13:10:41.233Z,74.73
2022-09-17T13:13:43.518Z,75.95
2022-09-17T13:16:34.186Z,75.94
2022-09-17T13:19:28.278Z,76.44
2022-09-17T13:22:04.252Z,75.59
2022-09-17T13:24:32.897Z,72.64
2022-09-17T13:27:02.741Z,72.00
2022-09-17T13:29:45.597Z,72.72
2022-09-17T13:32:39.975Z,71.83
2022-09-17T13:35:07.423Z,73.34
2022-09-17T13:37:36.665Z,73.08
2022-09-17T13:40:06.959Z,72.58
2022-09-17T13:42:48.643Z,72.94
2022-09-17T13:45:17.945Z,73.11
2022-09-17T13:47:58.552Z,72.51
2022-09-17T13:50:32.835Z,72.34
2022-09-17T13:53:09.115Z,72.56
2022-09-17T13:55:51.556Z,76.38
2022-09-17T13:58:21.590Z,75.57
2022-09-17T14:00:56.703Z,80.83
2022-09-17T14:03:40.843Z,82.66
2022-09-17T14:06:08.794Z,82.20
2022-09-17T14:08:45.664Z,82.88
2022-09-17T14:11:29.561Z,81.39
2022-09-17T14:14:06.724Z,80.70
2022-09-17T14:16:43.019Z,80.74
2022-09-17T14:19:17.013Z,80.28
2022-09-17T14:22:00.846Z,81.80
2022-09-17T14:24:36.685Z,80.17
2022-09-17T14:27:16.291Z,81.14
2022-09-17T14:29:49.711Z,82.45
2022-09-17T14:32:26.138Z,83.36
2022-09-17T14:34:53.975Z,85.02
2022-09-17T14:37:24.441Z,84.58
2022-09-17T14:39:53.328Z,86.02
2022-09-17T14:42:32.163Z,86.50
2022-09-17T14:45:16.256Z,86.32
2022-09-17T14:47:43.705Z,85.42
2022-09-17T14:50:27.083Z,86.08
2022-09-17T14:52:55.034Z,84.92
2022-09-17T14:55:25.631Z,86.28
2022-09-17T14:57:58.984Z,87.08
2022-09-17T15:00:33.921Z,88.02
2022-09-17T15:03:01.476Z,87.14
2022-09-17T15:05:40.929Z,90.33
2022-09-17T15:08:13.252Z,97.44
2022-09-17T15:10:52.402Z,100.00
2022-09-17T15:13:27.492Z,100.00
2022-09-17T15:16:11.624Z,100.00
2022-09-17T15:18:44.166Z,100.00
2022-09-17T15:21:31.397Z,100.00
2022-09-17T15:24:09.203Z,100.00
2022-09-17T15:26:40.458Z,100.00
2022-09-17T15:29:21.876Z,100.00
2022-09-17T15:31:49.461Z,100.00
2022-09-17T15:34:17.085Z,100.00
2022-09-17T15:37:09.118Z,100.00
2022-09-17T15:39:42.579Z,100.00
2022-09-17T15:42:29.483Z,100.00
2022-09-17T15:45:22.902Z,100.00
2022-09-17T15:48:01.022Z,100.00
2022-09-17T15:50:29.218Z,100.00
2022-09-17T15:53:13.579Z,100.00
2022-09-17T15:55:46.210Z,100.00
2022-09-17T15:58:34.692Z,100.00
2022-09-17T16:01:17.752Z,100.00
2022-09-17T16:03:45.258Z,100.00
2022-09-17T16:06:19.154Z,100.00
2022-09-17T16:08:47.724Z,100.00
2022-09-17T16:11:20.024Z,100.00
2022-09-17T16:13:52.052Z,100.00
2022-09-17T16:16:26.355Z,100.00
2022-09-17T16:18:53.876Z,100.00
2022-09-17T16:21:21.415Z,100.00
2022-09-17T16:23:48.867Z,100.00
2022-09-17T16:26:23.723Z,100.00
2022-09-17T16:28:54.937Z,100.00
2022-09-17T16:31:22.485Z,100.00
2022-09-17T16:33:50.355Z,100.00
2022-09-17T16:36:18.544Z,100.00
2022-09-17T16:38:46.045Z,100.00
2022-09-17T16:41:13.552Z,100.00
2022-09-17T16:43:41.105Z,100.00
2022-09-17T16:46:11.075Z,100.00
2022-09-17T16:48:38.806Z,100.00
2022-09-17T16:51:13.828Z,100.00
2022-09-17T16:53:41.794Z,100.00
2022-09-17T16:56:15.214Z,100.00
2022-09-17T16:58:44.123Z,100.00
2022-09-17T17:01:14.264Z,100.00
2022-09-17T17:03:42.520Z,100.00
2022-09-17T17:06:20.272Z,100.00
2022-09-17T17:08:48.420Z,100.00
2022-09-17T17:11:16.115Z,100.00
2022-09-17T17:13:44.198Z,100.00
2022-09-17T17:16:15.688Z,100.00
2022-09-17T17:18:44.879Z,100.00
2022-09-17T17:21:14.461Z,100.00
2022-09-17T17:23:47.484Z,100.00
2022-09-17T17:26:16.742Z,100.00
2022-09-17T17:28:44.742Z,100.00
2022-09-17T17:31:12.402Z,100.00
2022-09-17T17:33:40.269Z,100.00
2022-09-17T17:36:08.752Z,100.00
2022-09-17T17:38:37.923Z,100.00
2022-09-17T17:41:07.559Z,100.00
2022-09-17T17:43:36.351Z,100.00
2022-09-17T17:46:08.075Z,100.00
2022-09-17T17:48:36.493Z,100.00
2022-09-17T17:51:09.600Z,100.00
2022-09-17T17:53:38.278Z,100.00
2022-09-17T17:56:08.677Z,100.00
2022-09-17T17:58:36.823Z,100.00
2022-09-17T18:01:26.017Z,100.00
2022-09-17T18:04:05.489Z,100.00
2022-09-17T18:06:33.223Z,100.00
2022-09-17T18:09:01.694Z,100.00
2022-09-17T18:11:30.112Z,100.00
2022-09-17T18:13:58.703Z,100.00
2022-09-17T18:16:26.906Z,100.00
2022-09-17T18:18:57.479Z,100.00
2022-09-17T18:21:26.061Z,100.00
2022-09-17T18:23:54.231Z,100.00
2022-09-17T18:26:27.179Z,100.00
2022-09-17T18:28:55.370Z,100.00
2022-09-17T18:31:24.440Z,100.00
2022-09-17T18:34:10.842Z,100.00
2022-09-17T18:36:40.000Z,100.00
2022-09-17T18:39:46.707Z,100.00
2022-09-17T18:41:58.438Z,100.00
2022-09-17T18:44:25.937Z,100.00
2022-09-17T18:46:53.603Z,100.00
2022-09-17T18:49:21.450Z,100.00
2022-09-17T18:51:49.246Z,100.00
2022-09-17T18:54:17.098Z,100.00
2022-09-17T18:56:44.804Z,100.00
2022-09-17T18:59:12.469Z,100.00
2022-09-17T19:01:40.060Z,100.00
2022-09-17T19:04:08.632Z,100.00
2022-09-17T19:06:36.639Z,100.00
2022-09-17T19:09:06.708Z,100.00
2022-09-17T19:11:37.529Z,100.00
2022-09-17T19:14:05.263Z,100.00
2022-09-17T19:16:32.820Z,100.00
2022-09-17T19:19:00.552Z,100.00
2022-09-17T19:21:29.202Z,100.00
2022-09-17T19:23:56.808Z,100.00
2022-09-17T19:26:27.175Z,100.00
2022-09-17T19:28:58.207Z,100.00
2022-09-17T19:31:27.083Z,100.00
2022-09-17T19:33:55.642Z,100.00
2022-09-17T19:36:23.278Z,100.00
2022-09-17T19:38:50.854Z,100.00
2022-09-17T19:41:20.670Z,100.00
2022-09-17T19:43:54.617Z,100.00
2022-09-17T19:46:25.036Z,100.00
2022-09-17T19:48:55.467Z,100.00
2022-09-17T19:51:25.133Z,100.00
2022-09-17T19:53:53.459Z,100.00
2022-09-17T19:56:23.930Z,100.00
2022-09-17T19:58:51.950Z,100.00
2022-09-17T20:01:20.200Z,100.00
2022-09-17T20:03:48.855Z,100.00
2022-09-17T20:06:19.147Z,100.00
2022-09-17T20:08:48.232Z,100.00
2022-09-17T20:11:17.251Z,100.00
2022-09-17T20:13:44.897Z,100.00
2022-09-17T20:16:16.025Z,100.00
2022-09-17T20:18:46.358Z,100.00
2022-09-17T20:21:21.781Z,100.00
2022-09-17T20:23:49.651Z,100.00
2022-09-17T20:26:17.558Z,100.00
2022-09-17T20:28:45.289Z,100.00
2022-09-17T20:31:21.458Z,100.00
2022-09-17T20:33:53.051Z,100.00
2022-09-17T20:36:22.808Z,100.00
2022-09-17T20:41:40.047Z,100.00
2022-09-17T20:44:08.204Z,100.00
2022-09-17T20:46:35.838Z,100.00
2022-09-17T20:49:03.805Z,100.00
2022-09-17T20:51:32.987Z,100.00
2022-09-17T20:54:03.801Z,100.00
2022-09-17T20:56:33.613Z,100.00
2022-09-17T20:59:14.627Z,100.00
2022-09-17T21:01:45.273Z,100.00
2022-09-17T21:04:21.251Z,100.00
2022-09-17T21:06:52.904Z,100.00
2022-09-17T21:09:20.520Z,100.00
2022-09-17T21:11:49.140Z,100.00
2022-09-17T21:14:18.391Z,100.00
2022-09-17T21:16:46.914Z,100.00
2022-09-17T21:19:16.437Z,100.00
2022-09-17T21:21:44.471Z,100.00
2022-09-17T21:24:12.679Z,100.00
2022-09-17T21:26:40.314Z,100.00
2022-09-17T21:29:07.938Z,100.00
2022-09-17T21:31:37.318Z,100.00
2022-09-17T21:34:08.033Z,100.00
2022-09-17T21:36:37.788Z,100.00
2022-09-17T21:39:12.091Z,100.00
2022-09-17T21:41:42.616Z,100.00
2022-09-17T21:44:12.221Z,100.00
2022-09-17T21:46:40.753Z,100.00
2022-09-17T21:49:08.956Z,100.00
2022-09-17T21:51:39.471Z,100.00
2022-09-17T21:54:13.012Z,100.00
2022-09-17T21:56:40.532Z,100.00
2022-09-17T21:59:11.179Z,100.00
2022-09-17T22:01:42.053Z,100.00
2022-09-17T22:04:13.295Z,100.00
2022-09-17T22:06:41.867Z,100.00
2022-09-17T22:09:14.883Z,100.00
2022-09-17T22:11:42.864Z,100.00
2022-09-17T22:14:19.856Z,100.00
2022-09-17T22:16:51.211Z,100.00
2022-09-17T22:19:20.245Z,100.00
2022-09-17T22:21:51.542Z,100.00
2022-09-17T22:24:20.878Z,100.00
2022-09-17T22:26:56.612Z,100.00
2022-09-17T22:29:27.162Z,100.00
2022-09-17T22:31:54.636Z,100.00
2022-09-17T22:34:23.459Z,100.00
2022-09-17T22:36:51.082Z,100.00
2022-09-17T22:39:21.693Z,100.00
2022-09-17T22:41:50.428Z,100.00
2022-09-17T22:44:19.598Z,100.00
2022-09-17T22:46:49.644Z,100.00
2022-09-17T22:49:18.200Z,100.00
2022-09-17T22:51:47.361Z,100.00
2022-09-17T22:54:17.238Z,100.00
2022-09-17T22:56:45.810Z,100.00
2022-09-17T22:59:13.377Z,100.00
2022-09-17T23:01:41.742Z,100.00
2022-09-17T23:04:09.750Z,100.00
2022-09-17T23:06:40.056Z,100.00
2022-09-17T23:09:07.782Z,100.00
2022-09-17T23:11:38.065Z,100.00
2022-09-17T23:14:09.766Z,100.00
2022-09-17T23:16:42.646Z,100.00
2022-09-17T23:19:11.112Z,100.00
2022-09-17T23:21:39.426Z,100.00
2022-09-17T23:24:07.435Z,100.00
2022-09-17T23:26:35.114Z,100.00
2022-09-17T23:29:05.296Z,100.00
2022-09-17T23:31:37.478Z,100.00
2022-09-17T23:34:06.337Z,100.00
2022-09-17T23:36:36.543Z,100.00
2022-09-17T23:39:06.639Z,100.00
2022-09-17T23:41:37.224Z,100.00
2022-09-17T23:44:14.864Z,100.00
2022-09-17T23:46:44.697Z,100.00
2022-09-17T23:49:14.533Z,97.73
2022-09-17T23:51:42.415Z,100.00
2022-09-17T23:54:10.414Z,98.02
2022-09-17T23:56:38.028Z,100.00
2022-09-17T23:59:05.515Z,100.00
